createdAt,value
2019-04-21T00:02:26.481Z,99010.72
2019-04-21T00:05:16.453Z,99011.09
2019-04-21T00:07:50.713Z,99003.99
2019-04-21T00:10:27.183Z,99002.73
2019-04-21T00:12:57.125Z,98998.51
2019-04-21T00:15:24.187Z,98989.89
2019-04-21T00:17:57.504Z,98993.14
2019-04-21T00:20:37.078Z,98988.57
2019-04-21T00:23:19.866Z,98986.42
2019-04-21T00:25:48.778Z,98979.89
2019-04-21T00:28:37.763Z,98984.30
2019-04-21T00:31:08.108Z,98976.10
2019-04-21T00:33:29.957Z,98974.40
2019-04-21T00:36:05.388Z,98970.95
2019-04-21T00:39:07.173Z,98965.92
2019-04-21T00:41:32.045Z,98960.90
2019-04-21T00:43:57.290Z,98960.50
2019-04-21T00:46:37.275Z,98960.54
2019-04-21T00:49:10.440Z,98954.20
2019-04-21T00:52:07.544Z,98953.98
2019-04-21T00:54:43.877Z,98947.38
2019-04-21T00:57:11.531Z,98949.56
2019-04-21T00:59:48.312Z,98951.13
2019-04-21T01:02:19.262Z,98951.97
2019-04-21T01:05:00.396Z,98953.40
2019-04-21T01:07:31.440Z,98944.73
2019-04-21T01:09:58.317Z,98943.66
2019-04-21T01:12:42.025Z,98944.98
2019-04-21T01:15:26.378Z,98944.15
2019-04-21T01:17:51.911Z,98943.80
2019-04-21T01:20:16.082Z,98935.75
2019-04-21T01:22:40.595Z,98934.42
2019-04-21T01:25:20.370Z,98925.29
2019-04-21T01:28:09.113Z,98918.91
2019-04-21T01:30:39.875Z,98916.98
2019-04-21T01:33:21.671Z,98912.06
2019-04-21T01:35:53.703Z,98915.05
2019-04-21T01:38:35.742Z,98912.54
2019-04-21T01:41:08.610Z,98913.13
2019-04-21T01:43:34.563Z,98908.33
2019-04-21T01:46:10.699Z,98904.59
2019-04-21T01:48:42.802Z,98907.94
2019-04-21T01:51:22.566Z,98909.34
2019-04-21T01:54:33.135Z,98908.16
2019-04-21T01:57:11.438Z,98908.88
2019-04-21T01:59:40.192Z,98910.30
2019-04-21T02:02:23.579Z,98908.12
2019-04-21T02:05:05.770Z,98906.62
2019-04-21T02:07:34.009Z,98905.70
2019-04-21T02:10:11.136Z,98904.26
2019-04-21T02:12:44.506Z,98904.48
2019-04-21T02:15:36.123Z,98906.72
2019-04-21T02:17:56.340Z,98907.65
2019-04-21T02:20:20.709Z,98905.38
2019-04-21T02:23:26.368Z,98912.44
2019-04-21T02:25:38.520Z,98905.76
2019-04-21T02:28:19.326Z,98909.09
2019-04-21T02:31:05.947Z,98905.94
2019-04-21T02:33:36.186Z,98903.11
2019-04-21T02:36:26.608Z,98903.86
2019-04-21T02:38:46.189Z,98902.52
2019-04-21T02:41:12.816Z,98898.70
2019-04-21T02:44:04.208Z,98895.41
2019-04-21T02:46:42.532Z,98895.63
2019-04-21T02:49:04.216Z,98893.52
2019-04-21T02:56:56.924Z,98890.50
2019-04-21T03:00:06.481Z,98896.35
2019-04-21T03:02:58.628Z,98886.33
2019-04-21T03:05:58.739Z,98891.02
2019-04-21T03:11:10.979Z,98870.35
2019-04-21T03:13:46.997Z,98874.98
2019-04-21T03:16:23.030Z,98874.30
2019-04-21T03:18:56.625Z,98864.77
2019-04-21T03:21:34.921Z,98864.77
2019-04-21T03:24:08.078Z,98867.68
2019-04-21T03:26:55.255Z,98871.28
2019-04-21T03:29:20.219Z,98866.02
2019-04-21T03:32:25.722Z,98873.66
2019-04-21T03:39:48.872Z,98871.17
2019-04-21T03:42:34.808Z,98870.96
2019-04-21T03:52:48.333Z,98874.59
2019-04-21T03:58:29.548Z,98873.95
2019-04-21T04:04:15.059Z,98872.64
2019-04-21T04:07:06.009Z,98875.58
2019-04-21T04:14:40.175Z,98862.11
2019-04-21T04:17:14.567Z,98864.33
2019-04-21T04:19:44.683Z,98861.52
2019-04-21T04:22:19.457Z,98863.94
2019-04-21T04:24:58.870Z,98863.14
2019-04-21T04:30:07.984Z,98868.41
2019-04-21T04:32:38.586Z,98870.58
2019-04-21T04:35:10.845Z,98868.25
2019-04-21T04:38:04.616Z,98873.31
2019-04-21T04:40:48.249Z,98868.61
2019-04-21T04:43:18.649Z,98869.41
2019-04-21T04:48:41.959Z,98870.36
2019-04-21T04:53:47.149Z,98870.73
2019-04-21T05:09:16.384Z,98868.64
2019-04-21T05:11:48.761Z,98870.78
2019-04-21T05:14:21.302Z,98868.39
2019-04-21T05:17:24.928Z,98870.86
2019-04-21T05:19:34.246Z,98862.84
2019-04-21T05:22:12.165Z,98868.97
2019-04-21T05:24:33.324Z,98868.61
2019-04-21T05:27:07.581Z,98864.23
2019-04-21T05:30:01.887Z,98863.19
2019-04-21T05:32:40.140Z,98865.64
2019-04-21T05:35:16.967Z,98867.88
2019-04-21T05:37:55.286Z,98863.89
2019-04-21T05:40:27.413Z,98866.22
2019-04-21T05:43:10.537Z,98864.31
2019-04-21T05:48:35.126Z,98856.27
2019-04-21T05:51:03.585Z,98858.75
2019-04-21T05:53:46.743Z,98858.52
2019-04-21T05:56:22.941Z,98849.55
2019-04-21T05:59:00.649Z,98857.16
2019-04-21T06:01:37.791Z,98852.11
2019-04-21T06:04:16.892Z,98853.42
2019-04-21T06:06:55.491Z,98848.11
2019-04-21T06:09:19.046Z,98854.33
2019-04-21T06:11:55.627Z,98851.13
2019-04-21T06:14:41.351Z,98850.60
2019-04-21T06:17:13.128Z,98849.59
2019-04-21T06:22:14.903Z,98845.70
2019-04-21T06:25:23.923Z,98841.88
2019-04-21T06:27:44.676Z,98841.16
2019-04-21T06:30:03.399Z,98839.25
2019-04-21T06:35:52.847Z,98841.67
2019-04-21T06:38:13.819Z,98842.19
2019-04-21T06:40:48.306Z,98839.51
2019-04-21T06:45:54.230Z,98832.76
2019-04-21T06:48:39.006Z,98824.50
2019-04-21T06:51:10.554Z,98827.47
2019-04-21T06:53:48.715Z,98824.89
2019-04-21T06:56:27.095Z,98825.45
2019-04-21T06:58:51.443Z,98824.58
2019-04-21T07:01:30.958Z,98826.17
2019-04-21T07:04:13.390Z,98827.39
2019-04-21T07:06:45.561Z,98826.09
2019-04-21T07:11:42.203Z,98823.19
2019-04-21T07:14:30.075Z,98815.17
2019-04-21T07:17:06.381Z,98816.68
2019-04-21T07:19:41.026Z,98820.94
2019-04-21T07:22:15.829Z,98816.80
2019-04-21T07:24:45.823Z,98811.42
2019-04-21T07:27:23.986Z,98812.02
2019-04-21T07:30:00.517Z,98806.66
2019-04-21T07:32:49.735Z,98799.01
2019-04-21T07:37:40.825Z,98790.52
2019-04-21T07:40:09.124Z,98791.30
2019-04-21T07:42:44.125Z,98788.58
2019-04-21T07:45:16.649Z,98789.09
2019-04-21T07:48:01.736Z,98782.31
2019-04-21T07:50:57.463Z,98783.65
2019-04-21T07:53:41.916Z,98780.48
2019-04-21T07:55:59.436Z,98781.20
2019-04-21T07:58:53.605Z,98775.09
2019-04-21T08:01:26.887Z,98769.80
2019-04-21T08:04:03.360Z,98769.78
2019-04-21T08:06:36.625Z,98769.60
2019-04-21T08:09:08.443Z,98765.55
2019-04-21T08:11:38.328Z,98757.07
2019-04-21T08:14:17.775Z,98749.09
2019-04-21T08:16:58.488Z,98747.64
2019-04-21T08:19:31.193Z,98743.41
2019-04-21T08:24:47.311Z,98741.98
2019-04-21T08:27:22.261Z,98737.08
2019-04-21T08:29:54.912Z,98736.68
2019-04-21T08:32:42.331Z,98736.66
2019-04-21T08:35:22.755Z,98731.05
2019-04-21T08:37:31.437Z,98730.80
2019-04-21T08:40:18.745Z,98723.95
2019-04-21T08:42:47.738Z,98724.70
2019-04-21T08:45:22.015Z,98721.81
2019-04-21T08:47:55.359Z,98719.05
2019-04-21T08:50:27.918Z,98720.64
2019-04-21T08:53:07.555Z,98707.58
2019-04-21T08:56:07.573Z,98711.16
2019-04-21T08:58:54.416Z,98706.41
2019-04-21T09:01:30.350Z,98701.16
2019-04-21T09:04:06.114Z,98703.50
2019-04-21T09:06:56.028Z,98701.30
2019-04-21T09:09:16.680Z,98702.97
2019-04-21T09:11:54.257Z,98694.84
2019-04-21T09:14:25.470Z,98698.66
2019-04-21T09:16:56.743Z,98688.63
2019-04-21T09:19:44.503Z,98688.17
2019-04-21T09:22:13.292Z,98682.52
2019-04-21T09:24:50.152Z,98680.48
2019-04-21T09:27:23.209Z,98681.12
2019-04-21T09:29:47.933Z,98673.67
2019-04-21T09:32:18.368Z,98676.48
2019-04-21T09:34:49.599Z,98670.34
2019-04-21T09:37:36.670Z,98668.63
2019-04-21T09:40:00.902Z,98669.94
2019-04-21T09:42:41.010Z,98660.45
2019-04-21T09:45:11.777Z,98663.83
2019-04-21T09:47:52.267Z,98661.97
2019-04-21T09:50:19.858Z,98657.75
2019-04-21T09:52:59.751Z,98652.36
2019-04-21T09:55:39.568Z,98645.06
2019-04-21T09:58:14.771Z,98642.28
2019-04-21T10:00:51.040Z,98636.31
2019-04-21T10:03:16.238Z,98641.02
2019-04-21T10:05:52.110Z,98630.31
2019-04-21T10:08:27.302Z,98627.47
2019-04-21T10:11:07.678Z,98619.13
2019-04-21T10:13:41.946Z,98619.48
2019-04-21T10:16:26.088Z,98613.63
2019-04-21T10:19:04.590Z,98604.36
2019-04-21T10:21:50.076Z,98608.17
2019-04-21T10:24:24.478Z,98602.59
2019-04-21T10:26:59.005Z,98601.17
2019-04-21T10:29:34.845Z,98595.94
2019-04-21T10:32:09.191Z,98596.64
2019-04-21T10:34:43.199Z,98589.86
2019-04-21T10:37:18.854Z,98587.77
2019-04-21T10:39:53.817Z,98589.95
2019-04-21T10:42:28.865Z,98588.59
2019-04-21T10:45:01.541Z,98580.36
2019-04-21T10:47:34.608Z,98573.28
2019-04-21T10:50:08.763Z,98575.83
2019-04-21T10:52:58.859Z,98568.61
2019-04-21T10:55:48.659Z,98562.88
2019-04-21T10:58:28.881Z,98564.72
2019-04-21T11:01:19.232Z,98564.44
2019-04-21T11:04:32.966Z,98553.06
2019-04-21T11:07:14.520Z,98560.30
2019-04-21T11:09:46.328Z,98552.50
2019-04-21T11:12:19.856Z,98557.92
2019-04-21T11:14:53.606Z,98547.70
2019-04-21T11:17:30.175Z,98543.34
2019-04-21T11:20:04.656Z,98543.64
2019-04-21T11:22:40.050Z,98529.22
2019-04-21T11:25:12.905Z,98534.70
2019-04-21T11:27:49.066Z,98530.03
2019-04-21T11:30:23.240Z,98525.08
2019-04-21T11:32:59.624Z,98525.08
2019-04-21T11:35:35.133Z,98523.72
2019-04-21T11:38:18.112Z,98521.61
2019-04-21T11:40:47.786Z,98513.03
2019-04-21T11:43:22.035Z,98514.07
2019-04-21T11:45:58.141Z,98510.28
2019-04-21T11:48:32.635Z,98516.33
2019-04-21T11:51:07.036Z,98512.20
2019-04-21T11:53:41.100Z,98513.16
2019-04-21T11:56:16.719Z,98503.28
2019-04-21T11:58:51.838Z,98497.92
2019-04-21T12:01:25.618Z,98488.33
2019-04-21T12:03:59.993Z,98492.08
2019-04-21T12:06:38.609Z,98486.56
2019-04-21T12:09:09.954Z,98485.02
2019-04-21T12:11:45.245Z,98485.61
2019-04-21T12:14:18.292Z,98480.70
2019-04-21T12:16:53.111Z,98480.14
2019-04-21T12:19:27.002Z,98475.77
2019-04-21T12:22:09.724Z,98476.95
2019-04-21T12:24:36.784Z,98471.36
2019-04-21T12:27:09.947Z,98467.05
2019-04-21T12:29:44.054Z,98463.22
2019-04-21T12:32:48.593Z,98458.41
2019-04-21T12:35:22.263Z,98458.44
2019-04-21T12:37:56.408Z,98451.67
2019-04-21T12:40:30.526Z,98454.25
2019-04-21T12:43:04.274Z,98450.70
2019-04-21T12:45:37.866Z,98442.85
2019-04-21T12:48:11.293Z,98436.55
2019-04-21T12:50:45.812Z,98432.39
2019-04-21T12:53:19.342Z,98431.66
2019-04-21T12:55:53.812Z,98425.28
2019-04-21T12:58:26.744Z,98425.63
2019-04-21T13:01:00.923Z,98414.45
2019-04-21T13:03:34.113Z,98403.64
2019-04-21T13:06:07.587Z,98412.02
2019-04-21T13:08:51.839Z,98404.34
2019-04-21T13:11:17.004Z,98405.52
2019-04-21T13:13:50.177Z,98395.47
2019-04-21T13:16:23.501Z,98394.46
2019-04-21T13:18:57.516Z,98387.19
2019-04-21T13:21:31.914Z,98379.33
2019-04-21T13:24:05.185Z,98373.76
2019-04-21T13:26:45.619Z,98369.57
2019-04-21T13:29:16.403Z,98361.34
2019-04-21T13:31:48.462Z,98366.52
2019-04-21T13:34:22.174Z,98364.52
2019-04-21T13:36:54.931Z,98355.25
2019-04-21T13:40:20.757Z,98347.08
2019-04-21T13:42:41.965Z,98346.05
2019-04-21T13:45:12.209Z,98343.33
2019-04-21T13:47:46.272Z,98337.53
2019-04-21T13:50:21.387Z,98337.77
2019-04-21T13:52:56.438Z,98331.73
2019-04-21T13:55:29.756Z,98327.64
2019-04-21T13:58:02.274Z,98326.14
2019-04-21T14:00:35.851Z,98323.94
2019-04-21T14:03:10.447Z,98320.98
2019-04-21T14:05:44.427Z,98319.03
2019-04-21T14:08:18.857Z,98312.94
2019-04-21T14:10:53.588Z,98313.01
2019-04-21T14:13:27.111Z,98314.89
2019-04-21T14:16:00.502Z,98308.84
2019-04-21T14:18:34.225Z,98299.17
2019-04-21T14:21:07.276Z,98295.06
2019-04-21T14:23:44.642Z,98294.64
2019-04-21T14:26:16.130Z,98301.16
2019-04-21T14:28:49.512Z,98289.03
2019-04-21T14:31:22.474Z,98292.92
2019-04-21T14:33:56.221Z,98291.38
2019-04-21T14:36:29.012Z,98278.90
2019-04-21T14:39:02.859Z,98274.45
2019-04-21T14:41:35.909Z,98274.05
2019-04-21T14:44:09.251Z,98272.30
2019-04-21T14:47:07.033Z,98268.44
2019-04-21T14:50:02.965Z,98273.14
2019-04-21T14:52:39.070Z,98261.89
2019-04-21T14:55:24.943Z,98258.20
2019-04-21T14:57:58.993Z,98265.65
2019-04-21T15:00:51.396Z,98263.71
2019-04-21T15:03:25.840Z,98253.27
2019-04-21T15:06:01.119Z,98256.80
2019-04-21T15:08:35.317Z,98256.33
2019-04-21T15:11:08.668Z,98248.45
2019-04-21T15:13:41.798Z,98245.17
2019-04-21T15:16:15.070Z,98246.30
2019-04-21T15:18:48.593Z,98243.58
2019-04-21T15:21:21.714Z,98239.50
2019-04-21T15:24:02.546Z,98236.98
2019-04-21T15:26:38.071Z,98239.98
2019-04-21T15:31:56.704Z,98229.77
2019-04-21T15:34:29.895Z,98221.29
2019-04-21T15:37:04.014Z,98226.33
2019-04-21T15:39:38.346Z,98217.86
2019-04-21T15:42:10.825Z,98226.72
2019-04-21T15:44:44.697Z,98226.13
2019-04-21T15:47:17.851Z,98221.79
2019-04-21T15:50:00.806Z,98215.08
2019-04-21T15:52:29.957Z,98220.12
2019-04-21T15:55:06.871Z,98214.17
2019-04-21T15:58:08.072Z,98200.30
2019-04-21T16:00:52.748Z,98200.04
2019-04-21T16:03:26.797Z,98208.22
2019-04-21T16:05:59.564Z,98202.59
2019-04-21T16:08:33.337Z,98198.69
2019-04-21T16:11:08.107Z,98197.77
2019-04-21T16:13:41.658Z,98191.08
2019-04-21T16:16:16.611Z,98188.69
2019-04-21T16:18:50.038Z,98185.32
2019-04-21T16:21:44.469Z,98187.41
2019-04-21T16:24:18.375Z,98186.80
2019-04-21T16:26:50.994Z,98182.98
2019-04-21T16:29:25.015Z,98184.43
2019-04-21T16:31:59.500Z,98176.77
2019-04-21T16:34:40.103Z,98183.45
2019-04-21T16:37:07.956Z,98181.93
2019-04-21T16:39:41.260Z,98178.22
2019-04-21T16:42:16.242Z,98173.25
2019-04-21T16:44:49.921Z,98174.73
2019-04-21T16:47:22.307Z,98171.91
2019-04-21T16:49:55.912Z,98174.05
2019-04-21T16:52:40.295Z,98176.14
2019-04-21T16:55:41.679Z,98174.95
2019-04-21T16:58:30.774Z,98169.84
2019-04-21T17:01:10.971Z,98159.97
2019-04-21T17:03:42.457Z,98165.16
2019-04-21T17:06:17.356Z,98172.84
2019-04-21T17:08:52.639Z,98164.75
2019-04-21T17:11:30.818Z,98161.42
2019-04-21T17:14:00.549Z,98162.03
2019-04-21T17:16:57.680Z,98162.63
2019-04-21T17:19:14.535Z,98155.09
2019-04-21T17:21:43.715Z,98158.98
2019-04-21T17:24:16.749Z,98164.91
2019-04-21T17:26:51.428Z,98162.82
2019-04-21T17:29:24.946Z,98161.05
2019-04-21T17:32:02.945Z,98170.04
2019-04-21T17:34:36.075Z,98165.14
2019-04-21T17:37:09.328Z,98162.95
2019-04-21T17:39:42.979Z,98160.80
2019-04-21T17:42:27.503Z,98159.20
2019-04-21T17:44:52.981Z,98152.34
2019-04-21T17:47:41.559Z,98153.02
2019-04-21T17:50:25.413Z,98153.89
2019-04-21T17:53:06.495Z,98156.22
2019-04-21T17:55:40.153Z,98160.29
2019-04-21T17:58:26.985Z,98161.72
2019-04-21T18:01:12.984Z,98162.42
2019-04-21T18:03:52.271Z,98164.11
2019-04-21T18:06:07.485Z,98171.34
2019-04-21T18:08:47.860Z,98168.94
2019-04-21T18:11:12.564Z,98171.89
2019-04-21T18:13:39.653Z,98174.16
2019-04-21T18:16:22.974Z,98174.32
2019-04-21T18:18:48.712Z,98176.52
2019-04-21T18:21:30.583Z,98171.95
2019-04-21T18:24:14.702Z,98179.67
2019-04-21T18:26:50.654Z,98180.37
2019-04-21T18:29:16.100Z,98180.27
2019-04-21T18:31:51.957Z,98177.49
2019-04-21T18:34:56.265Z,98180.91
2019-04-21T18:38:08.053Z,98184.15
2019-04-21T18:40:37.642Z,98189.32
2019-04-21T18:46:35.687Z,98183.00
2019-04-21T18:48:57.088Z,98189.94
2019-04-21T18:51:57.331Z,98189.47
2019-04-21T18:54:41.234Z,98198.22
2019-04-21T18:57:07.663Z,98205.02
2019-04-21T18:59:39.854Z,98204.81
2019-04-21T19:02:13.654Z,98201.57
2019-04-21T19:04:48.257Z,98206.59
2019-04-21T19:07:37.740Z,98212.70
2019-04-21T19:10:21.995Z,98210.47
2019-04-21T19:15:19.992Z,98211.43
2019-04-21T19:18:27.792Z,98206.48
2019-04-21T19:20:34.757Z,98207.80
2019-04-21T19:23:04.577Z,98208.36
2019-04-21T19:25:49.235Z,98205.45
2019-04-21T19:28:17.909Z,98208.67
2019-04-21T19:30:57.676Z,98204.12
2019-04-21T19:33:24.396Z,98204.50
2019-04-21T19:35:45.592Z,98211.95
2019-04-21T19:38:30.596Z,98210.77
2019-04-21T19:41:10.379Z,98209.25
2019-04-21T19:43:47.087Z,98206.22
2019-04-21T19:46:18.028Z,98205.70
2019-04-21T19:49:07.035Z,98205.97
2019-04-21T19:51:28.992Z,98203.69
2019-04-21T19:54:00.809Z,98214.47
2019-04-21T19:56:25.954Z,98204.54
2019-04-21T19:58:59.098Z,98205.73
2019-04-21T20:01:33.030Z,98204.59
2019-04-21T20:04:08.449Z,98205.86
2019-04-21T20:06:54.630Z,98202.95
2019-04-21T20:09:37.186Z,98205.36
2019-04-21T20:12:09.527Z,98201.48
2019-04-21T20:17:17.733Z,98200.42
2019-04-21T20:19:42.445Z,98197.69
2019-04-21T20:22:16.843Z,98198.36
2019-04-21T20:24:59.595Z,98194.67
2019-04-21T20:27:34.791Z,98198.33
2019-04-21T20:30:21.348Z,98196.59
2019-04-21T20:32:56.572Z,98200.08
2019-04-21T20:35:38.242Z,98192.02
2019-04-21T20:38:05.168Z,98196.19
2019-04-21T20:40:36.222Z,98193.58
2019-04-21T20:43:16.256Z,98190.11
2019-04-21T20:45:53.699Z,98194.58
2019-04-21T20:48:21.025Z,98188.72
2019-04-21T20:51:00.594Z,98182.31
2019-04-21T20:53:37.652Z,98189.57
2019-04-21T20:56:04.697Z,98192.28
2019-04-21T20:58:43.538Z,98186.45
2019-04-21T21:01:36.228Z,98188.13
2019-04-21T21:03:56.038Z,98180.66
2019-04-21T21:06:32.893Z,98188.65
2019-04-21T21:09:04.877Z,98189.66
2019-04-21T21:11:53.650Z,98187.15
2019-04-21T21:14:18.653Z,98183.98
2019-04-21T21:17:01.318Z,98188.48
2019-04-21T21:19:37.774Z,98183.31
2019-04-21T21:21:59.100Z,98180.11
2019-04-21T21:24:44.724Z,98185.75
2019-04-21T21:27:14.188Z,98182.41
2019-04-21T21:29:49.857Z,98180.08
2019-04-21T21:32:29.146Z,98180.75
2019-04-21T21:35:00.910Z,98185.40
2019-04-21T21:37:37.008Z,98181.41
2019-04-21T21:40:09.410Z,98177.38
2019-04-21T21:42:34.333Z,98179.98
2019-04-21T21:45:12.546Z,98181.00
2019-04-21T21:47:56.267Z,98178.06
2019-04-21T21:50:26.056Z,98177.91
2019-04-21T21:53:00.769Z,98181.64
2019-04-21T21:55:32.337Z,98174.94
2019-04-21T21:58:08.485Z,98174.80
2019-04-21T22:00:49.864Z,98173.69
2019-04-21T22:03:27.416Z,98176.20
2019-04-21T22:06:02.150Z,98169.49
2019-04-21T22:08:28.302Z,98172.89
2019-04-21T22:11:01.505Z,98163.91
2019-04-21T22:13:46.174Z,98161.03
2019-04-21T22:16:14.000Z,98157.64
2019-04-21T22:19:05.640Z,98161.86
2019-04-21T22:21:41.616Z,98159.77
2019-04-21T22:24:03.548Z,98157.36
2019-04-21T22:26:31.299Z,98157.97
2019-04-21T22:29:05.626Z,98156.88
2019-04-21T22:31:41.574Z,98153.71
2019-04-21T22:34:17.989Z,98162.97
2019-04-21T22:37:01.276Z,98161.06
2019-04-21T22:39:44.639Z,98152.25
2019-04-21T22:42:11.182Z,98158.52
2019-04-21T22:44:36.961Z,98157.45
2019-04-21T22:47:16.902Z,98159.65
2019-04-21T22:49:46.487Z,98157.02
2019-04-21T22:52:24.008Z,98160.89
2019-04-21T22:54:56.113Z,98158.23
2019-04-21T22:57:37.808Z,98157.69
2019-04-21T23:00:10.778Z,98160.17
2019-04-21T23:02:41.080Z,98166.42
2019-04-21T23:05:22.279Z,98161.30
2019-04-21T23:07:56.680Z,98157.92
2019-04-21T23:10:27.406Z,98152.16
2019-04-21T23:13:09.694Z,98155.63
2019-04-21T23:15:43.885Z,98155.77
2019-04-21T23:18:27.329Z,98153.77
2019-04-21T23:21:03.518Z,98151.90
2019-04-21T23:23:44.324Z,98150.16
2019-04-21T23:26:18.184Z,98151.79
2019-04-21T23:28:55.731Z,98144.88
2019-04-21T23:31:31.032Z,98138.80
2019-04-21T23:33:44.097Z,98138.21
2019-04-21T23:36:22.614Z,98130.85
2019-04-21T23:38:55.058Z,98130.38
2019-04-21T23:41:36.113Z,98130.61
2019-04-21T23:44:06.892Z,98126.63
2019-04-21T23:46:39.165Z,98131.11
2019-04-21T23:49:28.333Z,98121.51
2019-04-21T23:51:56.731Z,98123.45
2019-04-21T23:54:23.309Z,98117.50
2019-04-21T23:56:57.876Z,98118.73
2019-04-21T23:59:38.687Z,98115.19
